Terminal Aerodrome Forecast
Issued by NWS

Home | Current Version | Previous Version | Text Only | Print | Product List | Glossary On
Versions: 1 2 3 4 5 6 7 8 9 10 11 12 13 14 15 16 17 18 19 20 21 22
000
FTUS41 KPBZ 181744
TAFZZV
TAF
KZZV 181744Z 1818/1918 18006KT P6SM BKN025
     FM182100 15008KT P6SM SCT250
     FM190800 16009KT P6SM VCSH BKN100 WS020/19040KT
     FM191200 17010KT P6SM -RA OVC025 WS020/20040KT
     FM191600 19012KT 3SM -RA OVC015=

USA.gov is the U.S. government's official web portal to all federal, state and local government web resources and services.